Current Conditions
Clear
Conditions



Pressure
1021.92 (hPa) - 30.18 (inHG)
Visibility

10.0 (km) - 6.2 (miles)
   Temperature
28  °C
82°F
13  °C
Dewpoint
40  %
 Humidity
   Wind Speed
11  km/h
6  kts
7  mph
3.1  m/s
   Wind Direction
 100°
Due East
   Airport Data
ELLX
Location Luxembourg-Findel International 36 km (22.37 mi) NNE from station
Metar :ELLX 230850Z 10006KT 040V150 CAVOK 28/13 Q1022 NOSIG
Tue 23rd July 09:50 am
   Raw Metar Info
Raw METAR is the most common format in the world for the transmission of observational weather data. It is highly standardized through the International Civil Aviation Organization (ICAO), which allows it to be understood throughout most of the world.
   API Info
Data Provided by
https://www.checkwx.com/weather/ELLX
   © Info
CSS/SVG/PHP scripts were developed by weather34.com for use in the weather34 template © 2015-2019

Guide Info provided by Metar-Wikipedia